Terminal Aerodrome Forecast
Issued by NWS

Home | Current Version | Previous Version | Text Only | Print | Product List | Glossary On
Versions: 1 2 3 4 5 6 7 8 9 10 11 12 13 14 15 16 17 18 19 20
000
FTUS46 KSTO 091917 AAC
TAFSCK
TAF AMD
KSCK 091917Z 0919/1018 12006KT P6SM SCT005
     FM092000 12006KT P6SM SCT020 BKN050
     FM101000 13015KT 4SM -RA BR OVC020
     FM101500 15015KT 2SM -RA BR OVC015=

USA.gov is the U.S. government's official web portal to all federal, state and local government web resources and services.